Time;durP1;ratioP1;P1;durP2;ratioP2;P2;SDS_P1;SDS_P2;PMS_P1;PMS_P2;Temp;Humidity;BMP_temperature;BMP_pressure;BME280_temperature;BME280_humidity;BME280_pressure;Samples;Min_cycle;Max_cycle;Signal;HPM_P1;HPM_P2
2021/09/10 00:01:10;;;;;;;;;4.00;4.00;;;;;21.68;75.12;100918.19;5033837;28;45453;-72
2021/09/10 00:03:35;;;;;;;;;3.00;3.00;;;;;21.69;75.21;100922.53;5032966;28;45542;-72
2021/09/10 00:06:00;;;;;;;;;2.00;2.00;;;;;21.62;75.43;100919.56;5033661;28;45410;-73
2021/09/10 00:08:26;;;;;;;;;5.00;3.75;;;;;21.57;75.75;100927.97;5034036;28;55261;-74
2021/09/10 00:10:51;;;;;;;;;3.00;3.00;;;;;21.63;75.37;100934.63;5034080;28;46218;-73
2021/09/10 00:13:17;;;;;;;;;4.00;4.00;;;;;21.58;75.79;100918.13;5033539;28;45414;-73
2021/09/10 00:15:42;;;;;;;;;3.75;2.00;;;;;21.63;75.62;100931.94;5034428;28;45374;-75
2021/09/10 00:18:07;;;;;;;;;4.25;3.25;;;;;21.63;75.95;100924.78;5032563;28;45463;-72
2021/09/10 00:20:33;;;;;;;;;4.50;3.25;;;;;21.63;75.89;100921.25;5032294;28;46035;-72
2021/09/10 00:22:58;;;;;;;;;3.75;3.75;;;;;21.62;75.99;100922.25;5034873;28;45421;-73
2021/09/10 00:25:23;;;;;;;;;3.75;2.75;;;;;21.62;75.53;100915.06;5034213;28;45586;-72
2021/09/10 00:27:48;;;;;;;;;5.00;4.00;;;;;21.61;75.91;100913.38;5034763;28;50605;-72
2021/09/10 00:30:14;;;;;;;;;4.50;4.50;;;;;21.57;76.35;100911.09;5032609;28;46168;-72
2021/09/10 00:32:39;;;;;;;;;3.25;3.00;;;;;21.61;76.01;100926.75;5033435;28;45989;-72
2021/09/10 00:35:05;;;;;;;;;3.75;3.00;;;;;21.54;75.69;100917.53;5033902;28;45364;-73
2021/09/10 00:40:07;;;;;;;;;6.25;4.00;;;;;21.57;76.35;100941.34;5285707;22;46400;-69
2021/09/10 00:42:32;;;;;;;;;4.75;3.50;;;;;21.55;76.30;100937.94;5013871;28;45717;-68
2021/09/10 00:44:58;;;;;;;;;4.75;4.00;;;;;21.57;76.23;100941.34;5014381;28;45327;-68
2021/09/10 00:47:23;;;;;;;;;6.50;4.25;;;;;21.56;75.85;100938.78;5015300;28;45553;-68
2021/09/10 00:49:49;;;;;;;;;3.25;3.25;;;;;21.47;76.34;100931.56;5014777;28;46156;-68
2021/09/10 00:52:15;;;;;;;;;3.00;3.00;;;;;21.57;76.46;100948.53;5015090;28;45476;-68
2021/09/10 00:54:41;;;;;;;;;6.25;3.00;;;;;21.54;76.39;100952.28;5014377;28;45438;-68
2021/09/10 00:57:07;;;;;;;;;4.00;3.00;;;;;21.54;75.99;100949.63;5015021;28;45557;-68
2021/09/10 00:59:33;;;;;;;;;4.25;3.00;;;;;21.53;76.13;100947.94;5012639;28;46218;-68
2021/09/10 01:01:59;;;;;;;;;2.50;2.00;;;;;21.52;76.00;100951.59;5014687;28;45383;-68
2021/09/10 01:04:25;;;;;;;;;4.00;4.00;;;;;21.46;75.95;100946.78;5015389;28;45557;-68
2021/09/10 01:06:53;;;;;;;;;2.00;2.00;;;;;21.46;76.00;100954.78;5014775;28;45473;-68
2021/09/10 01:09:20;;;;;;;;;6.50;3.00;;;;;21.45;76.60;100949.56;5014292;28;46982;-68
2021/09/10 01:11:47;;;;;;;;;5.00;3.00;;;;;21.41;75.89;100950.81;5013695;28;45639;-68
2021/09/10 01:14:15;;;;;;;;;4.00;3.00;;;;;21.41;76.14;100957.00;5014352;28;45612;-68
2021/09/10 01:16:41;;;;;;;;;3.50;3.00;;;;;21.35;76.29;100954.84;5014825;28;45560;-68
2021/09/10 01:19:06;;;;;;;;;4.75;4.50;;;;;21.33;76.11;100957.66;5014480;28;45756;-68
2021/09/10 01:21:32;;;;;;;;;3.00;3.00;;;;;21.30;76.29;100960.59;5013841;28;45660;-68
2021/09/10 01:23:57;;;;;;;;;4.25;3.25;;;;;21.27;76.14;100958.13;5013519;28;45870;-68
2021/09/10 01:26:22;;;;;;;;;3.00;3.00;;;;;21.24;76.68;100957.53;5014554;28;45264;-69
2021/09/10 01:28:49;;;;;;;;;4.50;3.25;;;;;21.21;76.71;100949.78;5014577;28;45621;-68
2021/09/10 01:31:14;;;;;;;;;4.25;4.25;;;;;21.22;76.60;100951.50;5012679;28;45648;-68
2021/09/10 01:33:39;;;;;;;;;2.25;2.25;;;;;21.23;76.66;100963.88;5013518;28;45386;-68
2021/09/10 01:36:05;;;;;;;;;3.25;2.25;;;;;21.24;76.68;100954.88;5014772;28;45527;-68
2021/09/10 01:38:30;;;;;;;;;3.25;3.25;;;;;21.25;76.76;100960.09;5013994;28;46336;-68
2021/09/10 01:40:55;;;;;;;;;6.00;4.00;;;;;21.30;76.34;100962.44;5014065;28;45474;-69
2021/09/10 01:43:21;;;;;;;;;2.25;2.25;;;;;21.25;76.64;100944.06;5014220;28;45315;-68
2021/09/10 01:45:46;;;;;;;;;3.75;3.75;;;;;21.26;76.38;100947.59;5014448;28;45514;-68
2021/09/10 01:48:11;;;;;;;;;2.50;2.50;;;;;21.22;76.53;100957.69;5013615;28;46267;-68
2021/09/10 01:50:37;;;;;;;;;3.00;3.00;;;;;21.24;76.28;100946.84;5013915;28;45550;-68
2021/09/10 01:53:02;;;;;;;;;4.25;4.25;;;;;21.25;76.91;100946.75;5013557;28;45434;-68
2021/09/10 01:55:30;;;;;;;;;6.00;3.75;;;;;21.22;77.10;100952.34;5014662;28;45374;-68
2021/09/10 01:57:55;;;;;;;;;4.50;2.25;;;;;21.22;76.83;100946.13;5013485;28;46127;-69
2021/09/10 02:00:20;;;;;;;;;5.00;3.00;;;;;21.26;77.06;100948.44;5012797;28;45486;-69
2021/09/10 02:02:46;;;;;;;;;2.00;2.00;;;;;21.29;76.67;100953.50;5014151;28;45387;-68
2021/09/10 02:05:12;;;;;;;;;3.75;3.25;;;;;21.33;76.67;100962.16;5014039;28;45632;-68
2021/09/10 02:07:38;;;;;;;;;3.50;3.50;;;;;21.32;77.03;100947.94;5014168;28;45814;-69
2021/09/10 02:10:09;;;;;;;;;5.00;5.00;;;;;21.33;77.05;100954.13;5013303;28;45371;-68
2021/09/10 02:12:34;;;;;;;;;4.00;3.00;;;;;21.34;76.97;100951.31;5014005;28;47709;-69
2021/09/10 02:15:00;;;;;;;;;4.00;4.00;;;;;21.36;76.83;100960.06;5013055;28;45398;-68
2021/09/10 02:17:25;;;;;;;;;3.25;3.00;;;;;21.35;76.95;100963.72;5013519;28;45369;-69
2021/09/10 02:19:51;;;;;;;;;4.00;4.00;;;;;21.35;76.72;100965.53;5013013;28;45601;-68
2021/09/10 02:22:16;;;;;;;;;3.25;3.25;;;;;21.38;76.64;100965.28;5013733;28;45456;-68
2021/09/10 02:24:42;;;;;;;;;3.00;3.00;;;;;21.37;76.61;100963.59;5013188;28;45452;-68
2021/09/10 02:27:07;;;;;;;;;3.25;3.00;;;;;21.40;76.82;100963.31;5013775;28;45971;-68
2021/09/10 02:29:33;;;;;;;;;5.00;3.00;;;;;21.38;76.67;100961.75;5012431;28;45483;-68
2021/09/10 02:31:58;;;;;;;;;4.00;3.50;;;;;21.42;76.77;100971.22;5028987;28;45558;-68
2021/09/10 02:34:23;;;;;;;;;3.75;3.75;;;;;21.41;76.80;100972.22;5014575;28;46958;-68
2021/09/10 02:36:49;;;;;;;;;4.00;1.75;;;;;21.37;77.43;100968.94;5016979;28;47663;-68
2021/09/10 02:39:14;;;;;;;;;6.75;3.75;;;;;21.33;77.39;100956.81;5016566;28;45496;-68
2021/09/10 02:41:40;;;;;;;;;5.00;4.00;;;;;21.35;77.39;100954.84;5016921;28;45390;-68
2021/09/10 02:44:06;;;;;;;;;4.75;3.75;;;;;21.38;77.25;100964.44;5005595;28;45446;-69
2021/09/10 02:46:33;;;;;;;;;5.00;4.00;;;;;21.36;77.21;100960.06;5015699;28;47538;-68
2021/09/10 02:48:59;;;;;;;;;3.00;3.00;;;;;21.35;77.26;100952.16;5016398;28;45795;-68
2021/09/10 02:51:24;;;;;;;;;4.00;2.00;;;;;21.39;77.04;100952.75;5016565;28;45383;-68
2021/09/10 02:53:49;;;;;;;;;4.00;3.00;;;;;21.35;76.85;100958.38;5016859;28;45460;-69
2021/09/10 02:56:15;;;;;;;;;5.00;4.00;;;;;21.34;77.40;100961.16;5017262;28;45588;-68
2021/09/10 02:58:40;;;;;;;;;7.00;3.75;;;;;21.31;77.07;100959.63;5016209;28;47910;-68
2021/09/10 03:01:05;;;;;;;;;5.00;5.00;;;;;21.31;77.16;100961.44;5017221;28;45414;-68
2021/09/10 03:03:31;;;;;;;;;3.25;3.25;;;;;21.25;77.25;100954.75;5016156;28;45324;-69
2021/09/10 03:05:57;;;;;;;;;5.00;3.00;;;;;21.23;77.58;100951.34;5016029;28;46464;-68
2021/09/10 03:08:23;;;;;;;;;3.50;3.50;;;;;21.24;77.92;100949.53;5016814;28;45703;-68
2021/09/10 03:10:49;;;;;;;;;5.75;3.25;;;;;21.24;78.01;100950.38;5016431;28;45488;-68
2021/09/10 03:13:15;;;;;;;;;3.00;3.00;;;;;21.22;77.67;100946.13;5017323;28;45569;-68
2021/09/10 03:15:40;;;;;;;;;5.25;4.00;;;;;21.26;77.77;100948.44;5016137;28;46496;-69
2021/09/10 03:18:05;;;;;;;;;5.75;4.25;;;;;21.29;78.09;100940.13;5015503;28;45457;-68
2021/09/10 03:20:31;;;;;;;;;3.00;3.00;;;;;21.31;77.35;100945.41;5015993;28;45462;-68
2021/09/10 03:22:56;;;;;;;;;3.00;3.00;;;;;21.33;78.00;100943.44;5016308;28;49772;-69
2021/09/10 03:25:22;;;;;;;;;7.00;5.00;;;;;21.35;77.53;100946.81;5016797;28;46501;-68
2021/09/10 03:27:48;;;;;;;;;4.00;4.00;;;;;21.37;77.43;100947.56;5016254;28;45347;-68
2021/09/10 03:30:14;;;;;;;;;6.00;4.00;;;;;21.38;77.88;100956.41;5015861;28;45597;-68
2021/09/10 03:32:40;;;;;;;;;4.00;4.00;;;;;21.38;77.76;100953.75;5016552;28;45490;-68
2021/09/10 03:35:06;;;;;;;;;3.25;3.25;;;;;21.39;77.54;100950.09;5015411;28;45462;-69
2021/09/10 03:37:31;;;;;;;;;3.25;3.25;;;;;21.38;77.60;100946.56;5016841;28;45471;-68
2021/09/10 03:39:56;;;;;;;;;5.75;4.00;;;;;21.43;77.30;100939.00;5016320;28;45477;-68
2021/09/10 03:42:22;;;;;;;;;5.25;4.50;;;;;21.44;77.61;100942.53;5016357;28;45564;-68
2021/09/10 03:44:47;;;;;;;;;5.75;5.00;;;;;21.45;77.93;100938.88;5014857;28;45679;-69
2021/09/10 03:47:12;;;;;;;;;4.50;4.50;;;;;21.45;77.79;100931.69;5015982;28;45504;-68
2021/09/10 03:49:38;;;;;;;;;4.75;3.50;;;;;21.41;77.39;100932.94;5015575;28;45457;-68
2021/09/10 03:52:05;;;;;;;;;5.50;3.00;;;;;21.42;77.28;100934.63;5016342;28;45320;-68
2021/09/10 03:54:30;;;;;;;;;5.00;5.00;;;;;21.44;78.20;100942.53;5014735;28;47201;-68
2021/09/10 03:56:56;;;;;;;;;5.50;4.75;;;;;21.46;77.98;100944.09;5015851;28;45300;-68
2021/09/10 03:59:21;;;;;;;;;7.25;4.00;;;;;21.44;77.49;100939.84;5015828;28;45473;-68
2021/09/10 04:01:47;;;;;;;;;7.50;4.25;;;;;21.47;78.02;100935.09;5016437;28;45393;-68
2021/09/10 04:04:13;;;;;;;;;4.00;4.00;;;;;21.47;77.91;100945.78;5016237;28;45647;-69
2021/09/10 04:06:38;;;;;;;;;3.50;3.50;;;;;21.48;77.32;100933.25;5017216;28;45519;-68
2021/09/10 04:09:03;;;;;;;;;7.75;4.00;;;;;21.48;77.98;100942.13;5016891;28;45552;-68
2021/09/10 04:11:29;;;;;;;;;5.75;4.75;;;;;21.47;77.28;100948.47;5017110;28;51644;-68
2021/09/10 04:13:54;;;;;;;;;7.75;5.75;;;;;21.48;77.52;100951.97;5015325;28;45392;-68
2021/09/10 04:16:19;;;;;;;;;5.25;4.25;;;;;21.45;77.29;100941.53;5018017;28;45921;-68
2021/09/10 04:18:45;;;;;;;;;7.25;5.50;;;;;21.50;77.41;100950.84;5015975;28;45327;-68
2021/09/10 04:21:10;;;;;;;;;7.00;5.00;;;;;21.51;77.83;100939.22;5016250;28;45758;-68
2021/09/10 04:23:35;;;;;;;;;5.50;4.75;;;;;21.52;77.63;100945.41;5016315;28;45393;-68
2021/09/10 04:26:01;;;;;;;;;5.00;4.50;;;;;21.54;77.81;100948.78;5031712;28;45465;-68
2021/09/10 04:28:26;;;;;;;;;5.00;5.00;;;;;21.53;77.45;100944.41;5015609;28;46348;-68
2021/09/10 04:30:51;;;;;;;;;5.00;5.00;;;;;21.52;77.59;100948.91;5018224;28;45493;-69
2021/09/10 04:33:17;;;;;;;;;6.50;5.25;;;;;21.52;77.47;100943.56;5016459;28;46484;-68
2021/09/10 04:35:42;;;;;;;;;7.00;4.50;;;;;21.52;77.20;100943.56;5015037;28;46473;-69
2021/09/10 04:38:07;;;;;;;;;6.00;5.00;;;;;21.53;77.35;100947.94;5050659;28;56233;-69
2021/09/10 04:40:33;;;;;;;;;4.50;4.50;;;;;21.55;77.02;100947.78;5015144;28;45430;-68
2021/09/10 04:42:58;;;;;;;;;5.00;5.00;;;;;21.52;77.35;100948.91;5014783;28;49171;-69
2021/09/10 04:45:23;;;;;;;;;8.00;8.00;;;;;21.53;77.57;100944.41;5014522;28;50294;-69
2021/09/10 04:47:49;;;;;;;;;7.75;5.50;;;;;21.52;77.51;100948.91;5013799;28;45477;-68
2021/09/10 04:50:15;;;;;;;;;6.25;6.25;;;;;21.53;77.03;100953.28;5014130;28;45537;-69
2021/09/10 04:52:41;;;;;;;;;5.50;5.50;;;;;21.54;77.18;100952.28;5048023;28;47731;-68
2021/09/10 04:55:08;;;;;;;;;5.00;4.00;;;;;21.53;77.59;100957.78;5013583;28;45899;-69
2021/09/10 04:57:33;;;;;;;;;7.00;7.00;;;;;21.47;77.31;100942.28;5013849;28;45437;-68
2021/09/10 04:59:58;;;;;;;;;6.25;6.00;;;;;21.55;77.02;100951.31;5014351;28;45361;-69
2021/09/10 05:02:25;;;;;;;;;5.75;4.25;;;;;21.56;77.24;100955.72;5013636;28;55228;-68
2021/09/10 05:04:50;;;;;;;;;6.00;5.00;;;;;21.57;77.54;100962.75;5014177;28;48325;-68
2021/09/10 05:07:15;;;;;;;;;7.50;5.00;;;;;21.58;77.13;100967.09;5015034;28;45547;-68
2021/09/10 05:09:41;;;;;;;;;8.25;8.00;;;;;21.58;77.43;100961.75;5014233;28;45428;-68
2021/09/10 05:12:06;;;;;;;;;6.00;6.00;;;;;21.58;77.27;100969.78;5014555;28;50579;-68
2021/09/10 05:14:31;;;;;;;;;7.75;6.00;;;;;21.57;77.61;100973.44;5013648;28;45510;-68
2021/09/10 05:16:57;;;;;;;;;7.00;5.50;;;;;21.55;77.52;100966.50;5014718;28;45411;-69
2021/09/10 05:19:23;;;;;;;;;5.25;5.25;;;;;21.52;77.70;100964.97;5014047;28;45508;-68
2021/09/10 05:21:48;;;;;;;;;7.25;4.25;;;;;21.53;77.25;100976.50;5013247;28;47139;-68
2021/09/10 05:24:13;;;;;;;;;7.00;5.00;;;;;21.50;77.31;100974.94;5013161;28;45476;-68
2021/09/10 05:26:39;;;;;;;;;6.75;5.50;;;;;21.49;77.92;100975.91;5014155;28;45453;-68
2021/09/10 05:29:04;;;;;;;;;5.00;5.00;;;;;21.50;77.64;100979.44;5013423;28;45412;-68
2021/09/10 05:31:29;;;;;;;;;6.00;5.25;;;;;21.51;77.94;100981.16;5028601;28;47135;-68
2021/09/10 05:33:55;;;;;;;;;7.00;6.00;;;;;21.50;77.89;100977.59;5013957;28;45542;-69
2021/09/10 05:36:20;;;;;;;;;7.25;6.50;;;;;21.51;77.68;100979.31;5011449;28;45502;-68
2021/09/10 05:38:46;;;;;;;;;10.25;5.50;;;;;21.50;78.17;100977.59;5010269;28;45485;-69
2021/09/10 05:41:11;;;;;;;;;12.00;6.25;;;;;21.50;78.15;100987.44;5036199;28;45821;-68
2021/09/10 05:43:37;;;;;;;;;7.00;6.50;;;;;21.49;77.63;100991.94;5014602;28;45518;-69
2021/09/10 05:46:02;;;;;;;;;8.00;6.00;;;;;21.48;78.17;100998.28;5013917;28;45473;-68
2021/09/10 05:48:28;;;;;;;;;8.25;5.50;;;;;21.47;78.05;100993.06;5012949;28;45821;-69
2021/09/10 05:50:53;;;;;;;;;7.00;5.00;;;;;21.43;78.46;100995.16;5011457;28;46285;-69
2021/09/10 05:53:18;;;;;;;;;6.25;6.25;;;;;21.39;78.50;100984.84;5010017;28;45450;-68
2021/09/10 05:55:44;;;;;;;;;8.00;6.25;;;;;21.41;78.01;100990.94;5010845;28;45988;-68
2021/09/10 05:58:10;;;;;;;;;9.00;6.50;;;;;21.42;77.99;100998.81;5024956;28;45619;-68
2021/09/10 06:00:38;;;;;;;;;7.00;6.00;;;;;21.45;78.04;101000.34;5009727;28;46044;-68
2021/09/10 06:03:05;;;;;;;;;5.50;2.00;;;;;21.43;78.15;100995.16;5009840;28;45708;-68
2021/09/10 06:05:31;;;;;;;;;7.00;6.25;;;;;21.47;78.09;101012.63;5009515;28;45868;-68
2021/09/10 06:07:57;;;;;;;;;7.00;6.75;;;;;21.51;78.25;101010.56;5008646;28;45861;-68
2021/09/10 06:10:23;;;;;;;;;9.75;8.75;;;;;21.50;78.05;101009.69;5013747;28;45697;-68
2021/09/10 06:12:48;;;;;;;;;8.25;5.75;;;;;21.57;78.19;101018.06;5012750;28;45907;-70
2021/09/10 06:15:14;;;;;;;;;11.75;8.00;;;;;21.56;77.53;101017.22;5008424;28;45607;-69
2021/09/10 06:17:41;;;;;;;;;9.25;7.75;;;;;21.54;77.75;101016.47;5012883;28;45505;-70
2021/09/10 06:20:07;;;;;;;;;6.00;5.50;;;;;21.57;77.71;101021.59;5010789;28;45501;-71
2021/09/10 06:22:33;;;;;;;;;8.25;7.00;;;;;21.59;77.90;101022.28;5015085;28;45706;-69
2021/09/10 06:24:58;;;;;;;;;8.75;7.75;;;;;21.62;78.04;101018.53;5013064;28;45592;-69
2021/09/10 06:27:24;;;;;;;;;6.50;6.00;;;;;21.66;77.47;101027.09;5012912;28;45536;-69
2021/09/10 06:29:49;;;;;;;;;8.00;6.75;;;;;21.66;77.84;101021.75;5012879;28;45750;-69
2021/09/10 06:32:15;;;;;;;;;9.50;6.25;;;;;21.71;77.29;101020.38;5010746;28;45657;-69
2021/09/10 06:34:40;;;;;;;;;6.00;6.00;;;;;21.75;77.39;101029.84;5013942;28;45799;-69
2021/09/10 06:37:06;;;;;;;;;11.25;6.75;;;;;21.78;77.39;101031.44;5014149;28;45577;-69
2021/09/10 06:39:31;;;;;;;;;10.50;6.75;;;;;21.80;77.28;101035.66;5012334;28;45438;-69
2021/09/10 06:41:57;;;;;;;;;10.50;6.00;;;;;21.79;77.14;101025.94;5027772;28;45819;-69
2021/09/10 06:44:23;;;;;;;;;11.00;8.00;;;;;21.88;76.87;101029.66;5011287;28;45764;-69
2021/09/10 06:46:49;;;;;;;;;7.75;6.00;;;;;21.87;76.70;101036.84;5014554;28;45943;-69
2021/09/10 06:49:14;;;;;;;;;8.75;7.00;;;;;21.88;76.38;101035.03;5044147;28;48168;-69
2021/09/10 06:51:39;;;;;;;;;7.75;6.25;;;;;21.93;76.18;101040.81;5009796;28;45536;-69
2021/09/10 06:54:05;;;;;;;;;7.00;7.00;;;;;21.95;76.28;101043.38;5010317;28;45733;-69
2021/09/10 06:56:30;;;;;;;;;8.25;7.50;;;;;22.04;76.42;101047.94;5011130;28;45595;-69
2021/09/10 06:58:56;;;;;;;;;8.75;6.00;;;;;22.06;76.19;101049.47;5012880;28;46279;-69
2021/09/10 07:01:21;;;;;;;;;9.25;6.50;;;;;22.14;76.48;101054.22;5014434;28;45427;-69
2021/09/10 07:03:47;;;;;;;;;10.00;7.25;;;;;22.19;76.10;101045.78;5012290;28;45718;-69
2021/09/10 07:06:12;;;;;;;;;8.75;8.75;;;;;22.21;75.57;101049.19;5011778;28;45655;-69
2021/09/10 07:08:38;;;;;;;;;6.50;5.75;;;;;22.29;75.28;101052.00;5013010;28;47988;-69
2021/09/10 07:11:03;;;;;;;;;8.00;6.75;;;;;22.28;75.30;101053.00;5012526;28;45420;-70
2021/09/10 07:13:29;;;;;;;;;8.50;8.25;;;;;22.32;75.41;101060.63;5013737;28;45424;-70
2021/09/10 07:15:55;;;;;;;;;9.75;8.00;;;;;22.37;75.55;101065.59;5012825;28;45403;-69
2021/09/10 07:18:20;;;;;;;;;8.50;7.00;;;;;22.27;75.18;101059.34;5011956;28;45438;-69
2021/09/10 07:20:47;;;;;;;;;8.50;7.75;;;;;22.27;75.12;101073.56;5008833;28;45870;-69
2021/09/10 07:23:13;;;;;;;;;11.25;9.50;;;;;22.21;75.48;101066.09;5012792;28;45715;-69
2021/09/10 07:25:39;;;;;;;;;10.50;8.25;;;;;22.18;75.96;101068.16;5012287;28;45509;-69
2021/09/10 07:28:05;;;;;;;;;8.75;8.00;;;;;22.16;75.65;101062.09;5010688;28;45458;-69
2021/09/10 07:30:31;;;;;;;;;148.00;123.50;;;;;22.23;75.73;101071.28;5010552;28;46237;-68
2021/09/10 07:32:56;;;;;;;;;10.00;8.75;;;;;22.18;74.98;101063.66;5013707;28;45444;-69
2021/09/10 07:35:22;;;;;;;;;7.00;7.00;;;;;22.27;75.33;101072.72;5010776;28;45564;-69
2021/09/10 07:37:48;;;;;;;;;8.50;7.50;;;;;22.26;75.16;101071.03;5012628;28;45471;-69
2021/09/10 07:40:14;;;;;;;;;10.00;8.00;;;;;22.31;74.84;101080.38;5011118;28;45510;-69
2021/09/10 07:42:40;;;;;;;;;7.00;6.50;;;;;22.33;74.56;101080.22;5010805;28;45666;-69
2021/09/10 07:45:07;;;;;;;;;6.25;6.25;;;;;22.27;74.53;101072.72;5006574;28;45807;-69
2021/09/10 07:47:32;;;;;;;;;8.00;8.00;;;;;22.26;75.16;101076.41;5009209;28;45848;-69
2021/09/10 07:49:57;;;;;;;;;8.00;8.00;;;;;22.33;75.01;101093.63;5009960;28;45516;-69
2021/09/10 07:52:23;;;;;;;;;6.75;6.25;;;;;22.36;74.67;101085.31;5011387;28;45443;-69
2021/09/10 07:54:48;;;;;;;;;9.00;6.00;;;;;22.40;74.79;101082.25;5012085;28;45527;-69
2021/09/10 07:57:13;;;;;;;;;7.25;5.75;;;;;22.45;74.36;101086.34;5010035;28;46355;-69
2021/09/10 07:59:39;;;;;;;;;6.25;6.25;;;;;22.49;74.63;101087.78;5010129;28;45518;-69
2021/09/10 08:02:04;;;;;;;;;7.75;7.00;;;;;22.53;74.63;101092.72;5011046;28;45554;-69
2021/09/10 08:04:29;;;;;;;;;9.50;7.00;;;;;22.59;73.95;101094.00;5013286;28;45711;-69
2021/09/10 08:06:55;;;;;;;;;9.00;7.00;;;;;22.71;73.98;101101.00;5009227;28;46102;-69
2021/09/10 08:09:20;;;;;;;;;9.00;8.25;;;;;22.74;73.89;101100.69;5008283;28;45520;-69
2021/09/10 08:11:46;;;;;;;;;5.50;5.00;;;;;22.74;73.96;101092.66;4999075;28;45851;-69
2021/09/10 08:14:11;;;;;;;;;12.50;10.25;;;;;22.77;73.41;101100.44;5012392;28;45595;-69
2021/09/10 08:16:37;;;;;;;;;10.50;8.00;;;;;22.77;73.41;101107.63;5012821;28;46017;-69
2021/09/10 08:19:03;;;;;;;;;8.25;6.00;;;;;22.74;73.19;101107.91;5005048;28;45661;-69
2021/09/10 08:21:28;;;;;;;;;7.00;7.00;;;;;22.78;73.19;101103.97;5010033;28;45666;-69
2021/09/10 08:23:53;;;;;;;;;8.25;6.00;;;;;22.72;72.88;101093.81;5009669;28;45394;-69
2021/09/10 08:26:19;;;;;;;;;9.00;6.00;;;;;22.81;72.76;101111.72;5010950;28;45513;-69
2021/09/10 08:28:44;;;;;;;;;6.00;6.00;;;;;22.86;73.35;101117.50;5010565;28;45556;-69
2021/09/10 08:31:10;;;;;;;;;7.50;5.25;;;;;23.09;72.72;101120.88;5005239;28;45699;-69
2021/09/10 08:33:35;;;;;;;;;6.50;6.00;;;;;23.25;72.38;101114.97;5008981;28;45600;-69
2021/09/10 08:36:02;;;;;;;;;7.50;6.50;;;;;23.41;71.74;101109.91;5008819;28;46435;-69
2021/09/10 08:38:27;;;;;;;;;9.00;8.00;;;;;23.49;71.70;101104.72;5009374;28;45373;-69
2021/09/10 08:40:56;;;;;;;;;7.00;7.00;;;;;23.60;71.33;101115.31;5011874;28;45645;-69
2021/09/10 08:43:23;;;;;;;;;6.25;6.00;;;;;23.62;70.87;101117.84;5011748;28;45446;-69
2021/09/10 08:45:48;;;;;;;;;6.00;6.00;;;;;23.61;70.52;101110.78;5008882;28;46418;-69
2021/09/10 08:48:17;;;;;;;;;10.50;7.00;;;;;23.68;70.78;101119.97;5011464;28;45647;-69
2021/09/10 08:50:43;;;;;;;;;8.00;5.00;;;;;23.87;70.46;101128.03;5009074;28;46005;-68
2021/09/10 08:53:09;;;;;;;;;7.00;6.50;;;;;23.95;70.09;101120.09;5008207;28;45529;-69
2021/09/10 08:55:34;;;;;;;;;10.00;7.00;;;;;24.20;70.03;101121.34;5012416;28;46293;-69
2021/09/10 08:58:00;;;;;;;;;9.00;7.50;;;;;24.88;68.97;101131.88;5008912;28;45355;-69
2021/09/10 09:00:37;;;;;;;;;6.25;5.00;;;;;26.75;66.77;101129.19;5008344;28;45743;-69
2021/09/10 09:03:09;;;;;;;;;8.00;6.75;;;;;26.81;64.81;101128.53;5010062;28;45741;-69
2021/09/10 09:05:35;;;;;;;;;6.25;6.25;;;;;26.71;64.96;101117.03;5008287;28;45572;-69
2021/09/10 09:08:06;;;;;;;;;8.00;7.00;;;;;27.59;63.77;101125.56;5008457;28;45490;-69
2021/09/10 09:10:51;;;;;;;;;18.75;15.25;;;;;29.30;61.21;101135.22;5011637;28;45487;-69
2021/09/10 09:13:18;;;;;;;;;7.75;7.75;;;;;29.96;59.11;101130.16;5011899;28;45382;-69
2021/09/10 09:15:43;;;;;;;;;7.50;6.00;;;;;29.70;57.43;101135.97;5010486;28;47442;-69
2021/09/10 09:18:09;;;;;;;;;5.75;5.25;;;;;29.13;57.25;101134.47;5008785;28;47519;-69
2021/09/10 09:20:35;;;;;;;;;7.75;5.75;;;;;28.54;56.94;101129.41;5004192;28;45562;-69
2021/09/10 09:23:02;;;;;;;;;5.25;4.50;;;;;27.83;58.41;101138.28;5009810;28;45536;-69
2021/09/10 09:25:29;;;;;;;;;4.25;4.25;;;;;27.50;58.83;101132.81;5011739;28;45673;-69
2021/09/10 09:27:55;;;;;;;;;5.50;5.00;;;;;27.09;59.24;101134.56;5008079;28;45626;-69
2021/09/10 09:30:34;;;;;;;;;5.50;5.25;;;;;26.92;59.58;101143.56;5007815;28;45561;-69
2021/09/10 09:32:59;;;;;;;;;7.75;5.50;;;;;26.95;59.54;101141.41;5009955;28;45574;-69
2021/09/10 09:35:29;;;;;;;;;6.00;4.00;;;;;27.06;59.79;101141.09;5008688;28;46192;-69
2021/09/10 09:37:54;;;;;;;;;3.75;3.75;;;;;27.27;59.05;101135.31;5010357;28;45793;-69
2021/09/10 09:40:31;;;;;;;;;5.25;4.50;;;;;27.47;58.79;101145.81;5008759;28;45470;-69
2021/09/10 09:42:56;;;;;;;;;5.25;5.00;;;;;27.48;57.95;101136.69;5006434;28;45435;-69
2021/09/10 09:45:25;;;;;;;;;5.50;5.50;;;;;27.33;58.32;101135.66;5007938;28;45579;-69
2021/09/10 09:47:51;;;;;;;;;4.75;4.75;;;;;27.02;58.38;101137.03;5007871;28;45507;-69
2021/09/10 09:50:19;;;;;;;;;6.67;5.00;;;;;26.90;58.58;101137.50;5007928;28;45630;-69
2021/09/10 09:52:49;;;;;;;;;6.00;4.75;;;;;26.83;59.77;101147.25;5010101;28;45905;-69
2021/09/10 09:55:15;;;;;;;;;6.00;4.00;;;;;26.86;59.04;101146.94;5009682;28;45812;-69
2021/09/10 09:57:43;;;;;;;;;4.50;4.00;;;;;27.00;59.51;101141.75;5010136;28;45485;-69
2021/09/10 10:00:10;;;;;;;;;5.00;5.00;;;;;27.26;57.86;101144.41;5007942;28;45496;-69
2021/09/10 10:02:36;;;;;;;;;7.00;5.75;;;;;27.51;57.59;101141.75;5007814;28;45437;-68
2021/09/10 10:07:50;;;;;;;;;5.00;5.00;;;;;27.95;56.22;101142.31;4971145;22;46803;-68
2021/09/10 10:10:22;;;;;;;;;7.00;4.75;;;;;27.91;56.36;101132.88;4990024;28;45572;-68
2021/09/10 10:12:51;;;;;;;;;5.75;5.00;;;;;27.93;56.38;101121.88;4989617;28;45328;-68
2021/09/10 10:15:24;;;;;;;;;3.50;2.50;;;;;28.33;56.05;101140.78;4988196;28;46461;-68
2021/09/10 10:17:51;;;;;;;;;3.00;3.00;;;;;28.48;54.96;101126.56;4991207;28;45550;-68
2021/09/10 10:20:46;;;;;;;;;3.00;3.00;;;;;28.45;54.35;101129.59;4988059;28;45679;-68
2021/09/10 10:23:43;;;;;;;;;5.25;3.75;;;;;28.20;53.96;101131.50;4981531;28;45600;-68
2021/09/10 10:26:30;;;;;;;;;4.75;4.75;;;;;27.85;54.45;101128.16;4988270;28;45752;-68
2021/09/10 10:29:35;;;;;;;;;4.50;3.75;;;;;27.60;55.25;101129.09;4989326;28;45451;-69
2021/09/10 10:32:04;;;;;;;;;3.50;3.50;;;;;27.42;55.73;101129.25;4981452;28;47132;-68
2021/09/10 10:34:31;;;;;;;;;6.00;3.50;;;;;27.44;55.75;101129.94;4991542;28;45560;-68
2021/09/10 10:36:57;;;;;;;;;18.00;13.75;;;;;27.55;56.08;101129.59;4988074;28;46303;-68
2021/09/10 10:39:31;;;;;;;;;4.25;4.00;;;;;27.76;54.93;101121.03;4999121;28;45463;-68
2021/09/10 10:42:02;;;;;;;;;4.00;4.00;;;;;28.04;54.11;101111.59;4986906;28;45706;-69
2021/09/10 10:44:33;;;;;;;;;4.00;4.00;;;;;28.32;54.35;101116.59;4991461;28;45386;-68
2021/09/10 10:47:14;;;;;;;;;5.75;5.75;;;;;28.52;54.03;101114.41;4993068;28;45498;-68
2021/09/10 10:49:41;;;;;;;;;4.75;4.00;;;;;28.49;53.65;101118.28;4974678;28;45665;-68
2021/09/10 10:52:28;;;;;;;;;5.50;4.25;;;;;28.24;54.17;101113.91;4990811;28;45451;-68
2021/09/10 10:55:18;;;;;;;;;6.50;4.50;;;;;27.86;54.22;101120.88;4996695;28;45629;-68
2021/09/10 10:57:44;;;;;;;;;7.25;6.00;;;;;27.91;54.17;101118.50;4991968;28;46343;-68
2021/09/10 11:00:27;;;;;;;;;4.50;3.50;;;;;28.40;53.09;101113.06;4995041;28;45661;-68
2021/09/10 11:03:13;;;;;;;;;4.00;3.00;;;;;29.00;53.27;101107.97;4986246;28;47279;-68
2021/09/10 11:05:39;;;;;;;;;6.25;5.00;;;;;29.50;52.06;101114.75;4992774;28;45810;-68
2021/09/10 11:08:05;;;;;;;;;6.00;5.75;;;;;29.73;51.70;101108.53;4995818;28;46277;-69
2021/09/10 11:10:31;;;;;;;;;3.75;3.00;;;;;29.80;50.47;101106.75;4996566;28;45393;-68
2021/09/10 11:12:58;;;;;;;;;2.50;2.25;;;;;29.98;50.05;101111.88;4997082;28;45329;-68
2021/09/10 11:15:30;;;;;;;;;3.75;3.75;;;;;30.26;49.22;101107.53;4997023;28;45479;-69
2021/09/10 11:18:08;;;;;;;;;3.00;3.00;;;;;30.44;48.25;101106.34;4998181;28;46238;-69
2021/09/10 11:20:42;;;;;;;;;4.00;3.00;;;;;30.45;49.39;101081.75;4997643;28;45830;-68
2021/09/10 11:23:10;;;;;;;;;3.25;3.25;;;;;30.49;47.91;101090.31;4996739;28;45361;-68
2021/09/10 11:25:53;;;;;;;;;4.75;3.00;;;;;30.30;47.85;101089.88;4988185;28;45475;-68
2021/09/10 11:28:20;;;;;;;;;5.00;3.00;;;;;30.33;48.37;101086.81;4981326;28;45391;-68